Time;durP1;ratioP1;P1;durP2;ratioP2;P2;SDS_P1;SDS_P2;PMS_P1;PMS_P2;Temp;Humidity;BMP_temperature;BMP_pressure;BME280_temperature;BME280_humidity;BME280_pressure;Samples;Min_cycle;Max_cycle;Signal;HPM_P1;HPM_P2
2021/09/15 00:02:09;;;;;;;10.93;6.83;;;;;;;;;;4995126;28;20225;-83
2021/09/15 00:05:13;;;;;;;7.67;6.37;;;;;;;;;;4994741;28;20214;-85
2021/09/15 00:08:17;;;;;;;7.47;6.73;;;;;;;;;;4995328;28;20633;-85
2021/09/15 00:11:22;;;;;;;8.10;6.90;;;;;;;;;;4984110;28;20217;-83
2021/09/15 00:14:26;;;;;;;7.67;6.40;;;;;;;;;;4983614;28;20186;-85
2021/09/15 00:17:30;;;;;;;7.60;6.20;;;;;;;;;;4994421;28;20186;-83
2021/09/15 00:20:34;;;;;;;6.63;5.93;;;;;;;;;;4974509;28;20553;-83
2021/09/15 00:23:38;;;;;;;9.40;6.33;;;;;;;;;;4986577;28;20177;-85
2021/09/15 00:26:42;;;;;;;6.40;5.80;;;;;;;;;;4983601;28;20182;-84
2021/09/15 00:29:49;;;;;;;6.63;5.93;;;;;;;;;;4995305;28;20657;-83
2021/09/15 00:32:53;;;;;;;8.17;6.23;;;;;;;;;;4986193;28;20190;-83
2021/09/15 00:35:57;;;;;;;7.27;6.57;;;;;;;;;;4973820;28;20178;-86
2021/09/15 00:39:01;;;;;;;7.40;6.70;;;;;;;;;;4994626;28;20178;-83
2021/09/15 00:42:08;;;;;;;9.63;6.33;;;;;;;;;;4996326;28;20214;-83
2021/09/15 00:45:12;;;;;;;7.27;6.57;;;;;;;;;;4995181;28;20210;-84
2021/09/15 00:48:16;;;;;;;7.60;6.73;;;;;;;;;;4985972;28;20202;-83
2021/09/15 00:51:21;;;;;;;7.77;6.97;;;;;;;;;;4984009;28;20233;-83
2021/09/15 00:54:26;;;;;;;11.93;7.73;;;;;;;;;;4995646;28;20198;-85
2021/09/15 00:57:31;;;;;;;7.30;6.60;;;;;;;;;;4994342;28;20182;-83
2021/09/15 01:00:37;;;;;;;7.70;6.93;;;;;;;;;;4984513;28;20554;-85
2021/09/15 01:03:41;;;;;;;7.53;6.67;;;;;;;;;;4974090;28;20182;-83
2021/09/15 01:06:47;;;;;;;11.70;7.40;;;;;;;;;;4983071;28;20225;-86
2021/09/15 01:09:52;;;;;;;8.60;6.63;;;;;;;;;;4983693;28;20653;-85
2021/09/15 01:13:03;;;;;;;9.87;6.53;;;;;;;;;;4974209;28;20198;-83
2021/09/15 01:16:22;;;;;;;8.03;6.13;;;;;;;;;;4985535;28;20614;-86
2021/09/15 01:19:44;;;;;;;7.20;6.50;;;;;;;;;;4995013;28;20337;-83
2021/09/15 01:23:20;;;;;;;9.23;6.67;;;;;;;;;;4989660;28;20630;-86
2021/09/15 01:26:51;;;;;;;7.13;5.97;;;;;;;;;;4983223;28;20213;-85
2021/09/15 01:30:13;;;;;;;8.33;6.70;;;;;;;;;;5000390;28;20214;-86
2021/09/15 01:33:25;;;;;;;6.90;6.20;;;;;;;;;;4986786;28;20178;-86
2021/09/15 01:36:29;;;;;;;10.57;6.63;;;;;;;;;;4975569;28;20198;-85
2021/09/15 01:39:34;;;;;;;8.73;6.33;;;;;;;;;;4987819;28;20198;-83
2021/09/15 01:42:39;;;;;;;7.30;6.60;;;;;;;;;;4976163;28;20175;-85
2021/09/15 01:45:46;;;;;;;8.93;6.73;;;;;;;;;;4998783;28;20210;-86
2021/09/15 01:48:58;;;;;;;9.37;7.40;;;;;;;;;;4988928;28;20186;-83
2021/09/15 01:52:05;;;;;;;8.73;7.17;;;;;;;;;;4987346;28;20230;-83
2021/09/15 01:55:30;;;;;;;8.40;6.70;;;;;;;;;;4978791;28;20625;-86
2021/09/15 01:59:03;;;;;;;7.87;6.73;;;;;;;;;;4997654;28;20191;-83
2021/09/15 02:02:28;;;;;;;11.00;7.33;;;;;;;;;;4998235;28;20186;-86
2021/09/15 02:05:35;;;;;;;9.97;7.13;;;;;;;;;;4976088;28;20210;-86
2021/09/15 02:08:57;;;;;;;8.90;7.67;;;;;;;;;;5000308;28;20190;-85
2021/09/15 02:12:13;;;;;;;9.13;7.77;;;;;;;;;;4987498;28;20222;-86
2021/09/15 02:15:18;;;;;;;9.27;8.27;;;;;;;;;;4996964;28;20198;-85
2021/09/15 02:18:26;;;;;;;10.93;8.47;;;;;;;;;;4975973;28;20178;-86
2021/09/15 02:21:57;;;;;;;9.87;8.63;;;;;;;;;;4985864;28;20217;-85
2021/09/15 02:25:20;;;;;;;9.23;8.00;;;;;;;;;;4999502;28;20210;-85
2021/09/15 02:28:42;;;;;;;9.47;8.07;;;;;;;;;;4999852;28;20190;-85
2021/09/15 02:32:10;;;;;;;10.03;7.93;;;;;;;;;;5000766;28;20549;-85
2021/09/15 02:35:30;;;;;;;10.13;9.13;;;;;;;;;;4988139;28;20179;-86
2021/09/15 02:38:45;;;;;;;10.50;9.17;;;;;;;;;;4986371;28;20182;-86
2021/09/15 02:42:14;;;;;;;11.60;9.90;;;;;;;;;;4997033;28;20217;-85
2021/09/15 02:45:34;;;;;;;14.40;10.03;;;;;;;;;;4976733;28;20210;-86
2021/09/15 02:48:49;;;;;;;9.97;8.97;;;;;;;;;;4975782;28;20237;-85
2021/09/15 02:52:14;;;;;;;11.10;9.20;;;;;;;;;;4985404;28;20701;-86
2021/09/15 02:55:40;;;;;;;11.10;9.80;;;;;;;;;;4988216;28;20179;-85
2021/09/15 02:59:05;;;;;;;11.40;10.20;;;;;;;;;;4985544;28;20543;-85
2021/09/15 03:02:25;;;;;;;14.00;10.57;;;;;;;;;;4966045;28;20202;-86
2021/09/15 03:05:48;;;;;;;16.90;11.73;;;;;;;;;;4978755;28;20225;-85
2021/09/15 03:09:18;;;;;;;14.10;11.50;;;;;;;;;;4975158;28;20566;-85
2021/09/15 03:12:23;;;;;;;12.90;11.50;;;;;;;;;;4954706;28;20203;-83
2021/09/15 03:15:28;;;;;;;13.00;11.70;;;;;;;;;;4957309;28;20186;-85
2021/09/15 03:18:33;;;;;;;12.17;10.87;;;;;;;;;;4956033;28;20661;-83
2021/09/15 03:21:39;;;;;;;12.23;10.93;;;;;;;;;;4956195;28;20221;-83
2021/09/15 03:24:44;;;;;;;13.53;10.27;;;;;;;;;;4956037;28;20198;-85
2021/09/15 03:27:48;;;;;;;11.43;10.23;;;;;;;;;;4967411;28;20190;-83
2021/09/15 03:30:53;;;;;;;10.73;9.63;;;;;;;;;;4966525;28;20245;-83
2021/09/15 03:33:57;;;;;;;10.60;9.50;;;;;;;;;;4956452;28;20199;-83
2021/09/15 03:37:02;;;;;;;10.90;9.80;;;;;;;;;;4955143;28;20183;-83
2021/09/15 03:40:08;;;;;;;11.93;9.63;;;;;;;;;;4979773;28;20674;-83
2021/09/15 03:43:12;;;;;;;11.90;10.70;;;;;;;;;;4966232;28;20183;-85
2021/09/15 03:46:17;;;;;;;10.93;9.17;;;;;;;;;;4953599;28;20233;-85
2021/09/15 03:49:22;;;;;;;10.53;9.30;;;;;;;;;;4954225;28;20210;-83
2021/09/15 03:52:28;;;;;;;11.80;10.33;;;;;;;;;;4954168;28;20630;-83
2021/09/15 03:55:34;;;;;;;15.63;10.93;;;;;;;;;;4964619;28;20681;-83
2021/09/15 03:58:39;;;;;;;11.00;9.83;;;;;;;;;;4977706;28;20538;-85
2021/09/15 04:01:43;;;;;;;12.17;10.23;;;;;;;;;;4953925;28;20226;-83
2021/09/15 04:04:48;;;;;;;13.97;9.90;;;;;;;;;;4977349;28;20214;-85
2021/09/15 04:07:52;;;;;;;12.37;10.37;;;;;;;;;;4964015;28;20674;-83
2021/09/15 04:10:56;;;;;;;13.77;10.13;;;;;;;;;;4954100;28;20233;-83
2021/09/15 04:14:01;;;;;;;10.87;9.77;;;;;;;;;;4955396;28;20274;-86
2021/09/15 04:17:05;;;;;;;13.23;11.83;;;;;;;;;;4977726;28;20191;-86
2021/09/15 04:20:11;;;;;;;12.43;10.57;;;;;;;;;;4967148;28;20233;-86
2021/09/15 04:23:19;;;;;;;13.97;11.27;;;;;;;;;;4981326;28;20190;-83
2021/09/15 04:33:12;;;;;;;16.77;13.53;;;;;;;;;;4978656;28;20535;-83
2021/09/15 04:36:16;;;;;;;21.50;13.47;;;;;;;;;;4966695;28;20206;-83
2021/09/15 04:39:20;;;;;;;16.20;12.43;;;;;;;;;;4975573;28;20190;-85
2021/09/15 04:42:26;;;;;;;17.83;12.70;;;;;;;;;;4964459;28;20193;-85
2021/09/15 04:45:30;;;;;;;17.10;13.93;;;;;;;;;;4964650;28;20194;-83
2021/09/15 04:48:37;;;;;;;18.57;13.60;;;;;;;;;;4952820;28;20198;-83
2021/09/15 04:51:41;;;;;;;22.40;16.23;;;;;;;;;;4954164;28;20241;-83
2021/09/15 04:54:45;;;;;;;19.80;15.43;;;;;;;;;;4976369;28;20283;-86
2021/09/15 04:57:50;;;;;;;18.87;14.33;;;;;;;;;;4953967;28;20185;-86
2021/09/15 05:00:54;;;;;;;16.03;13.37;;;;;;;;;;4952811;28;20218;-83
2021/09/15 05:03:58;;;;;;;14.07;12.37;;;;;;;;;;4967885;28;20189;-83
2021/09/15 05:07:02;;;;;;;16.83;13.97;;;;;;;;;;4956962;28;20209;-83
2021/09/15 05:10:07;;;;;;;19.83;14.73;;;;;;;;;;4978943;28;20182;-83
2021/09/15 05:13:12;;;;;;;23.13;16.43;;;;;;;;;;4956579;28;20547;-83
2021/09/15 05:16:19;;;;;;;18.97;15.27;;;;;;;;;;4956860;28;20653;-83
2021/09/15 05:19:23;;;;;;;23.50;15.60;;;;;;;;;;4956399;28;20209;-83
2021/09/15 05:22:27;;;;;;;18.07;14.80;;;;;;;;;;4967457;28;20202;-83
2021/09/15 05:25:31;;;;;;;15.90;14.27;;;;;;;;;;4966952;28;20190;-83
2021/09/15 05:28:36;;;;;;;18.37;15.03;;;;;;;;;;4956652;28;20206;-83
2021/09/15 05:31:41;;;;;;;17.33;14.63;;;;;;;;;;4967570;28;20229;-84
2021/09/15 05:34:45;;;;;;;15.20;13.57;;;;;;;;;;4956402;28;20194;-83
2021/09/15 05:37:49;;;;;;;14.20;12.77;;;;;;;;;;4956015;28;20185;-83
2021/09/15 05:40:54;;;;;;;17.30;13.47;;;;;;;;;;4967210;28;20229;-83
2021/09/15 05:43:58;;;;;;;17.10;13.00;;;;;;;;;;4966610;28;20190;-83
2021/09/15 05:47:03;;;;;;;16.63;12.10;;;;;;;;;;4977594;28;20225;-83
2021/09/15 05:50:11;;;;;;;17.60;12.77;;;;;;;;;;4966211;28;20724;-84
2021/09/15 05:53:21;;;;;;;32.27;15.87;;;;;;;;;;4956326;28;20538;-83
2021/09/15 05:56:25;;;;;;;30.63;16.13;;;;;;;;;;4955014;28;20205;-84
2021/09/15 05:59:29;;;;;;;22.43;16.10;;;;;;;;;;4955932;28;20189;-83
2021/09/15 06:02:33;;;;;;;23.57;16.50;;;;;;;;;;4955548;28;20561;-83
2021/09/15 06:05:41;;;;;;;33.37;15.97;;;;;;;;;;4955637;28;20186;-83
2021/09/15 06:08:45;;;;;;;21.73;15.63;;;;;;;;;;4954851;28;20186;-83
2021/09/15 06:11:50;;;;;;;29.57;15.73;;;;;;;;;;4966157;28;20225;-84
2021/09/15 06:14:54;;;;;;;28.50;16.00;;;;;;;;;;4953836;28;20210;-83
2021/09/15 06:17:58;;;;;;;26.57;21.40;;;;;;;;;;4955539;28;20645;-83
2021/09/15 06:21:06;;;;;;;33.33;25.30;;;;;;;;;;4955599;28;20241;-84
2021/09/15 06:24:29;;;;;;;28.57;22.13;;;;;;;;;;4977544;28;20277;-83
2021/09/15 06:27:35;;;;;;;24.80;20.77;;;;;;;;;;4966024;28;20213;-83
2021/09/15 06:30:43;;;;;;;25.23;19.23;;;;;;;;;;4966092;28;20222;-83
2021/09/15 06:33:48;;;;;;;23.57;17.33;;;;;;;;;;4977136;28;20746;-83
2021/09/15 06:36:53;;;;;;;27.20;17.90;;;;;;;;;;4954989;28;20653;-84
2021/09/15 06:39:57;;;;;;;27.10;16.93;;;;;;;;;;4954269;28;20194;-84
2021/09/15 06:43:01;;;;;;;18.90;16.53;;;;;;;;;;4976772;28;20213;-83
2021/09/15 06:46:06;;;;;;;20.77;14.37;;;;;;;;;;4965817;28;20210;-83
2021/09/15 06:49:10;;;;;;;14.43;11.43;;;;;;;;;;4954824;28;20181;-83
2021/09/15 06:52:14;;;;;;;13.30;11.37;;;;;;;;;;5030032;23;20235;-85
2021/09/15 06:55:19;;;;;;;12.13;10.50;;;;;;;;;;5012953;28;20188;-85
2021/09/15 06:58:23;;;;;;;12.87;10.97;;;;;;;;;;5013090;28;20211;-85
2021/09/15 07:01:28;;;;;;;13.07;11.67;;;;;;;;;;5012456;28;20227;-85
2021/09/15 07:04:33;;;;;;;17.50;10.70;;;;;;;;;;5001795;28;20555;-85
2021/09/15 07:07:37;;;;;;;14.53;11.73;;;;;;;;;;5001862;28;20220;-85
2021/09/15 07:10:42;;;;;;;12.77;10.63;;;;;;;;;;5012723;28;20196;-85
2021/09/15 07:13:45;;;;;;;11.93;9.83;;;;;;;;;;5012128;28;20192;-85
2021/09/15 07:16:50;;;;;;;11.80;10.47;;;;;;;;;;5012403;28;20196;-85
2021/09/15 07:19:54;;;;;;;14.97;11.97;;;;;;;;;;5003900;28;20204;-85
2021/09/15 07:22:58;;;;;;;21.90;13.93;;;;;;;;;;5001401;28;20220;-85
2021/09/15 07:26:02;;;;;;;17.67;12.67;;;;;;;;;;5013207;28;20187;-85
2021/09/15 07:29:07;;;;;;;20.10;14.20;;;;;;;;;;5001393;28;20203;-85
2021/09/15 07:32:11;;;;;;;19.73;14.33;;;;;;;;;;5023985;28;20223;-85
2021/09/15 07:35:15;;;;;;;18.73;13.33;;;;;;;;;;5002235;28;20196;-85
2021/09/15 07:38:20;;;;;;;16.03;12.37;;;;;;;;;;5014037;28;20180;-85
2021/09/15 07:41:25;;;;;;;13.73;12.33;;;;;;;;;;5011490;28;20239;-85
2021/09/15 07:44:29;;;;;;;19.93;13.73;;;;;;;;;;5000097;28;20192;-85
2021/09/15 07:47:33;;;;;;;15.80;12.90;;;;;;;;;;4999635;28;20211;-83
2021/09/15 07:50:37;;;;;;;14.93;12.13;;;;;;;;;;5011395;28;20188;-85
2021/09/15 07:53:41;;;;;;;15.47;11.80;;;;;;;;;;5000293;28;20192;-85
2021/09/15 07:56:46;;;;;;;22.73;11.20;;;;;;;;;;4999869;28;20539;-84
2021/09/15 07:59:50;;;;;;;16.77;12.13;;;;;;;;;;5011143;28;20539;-85
2021/09/15 08:02:54;;;;;;;18.00;13.53;;;;;;;;;;4999846;28;20571;-85
2021/09/15 08:06:00;;;;;;;19.63;13.87;;;;;;;;;;4999791;28;20655;-85
2021/09/15 08:09:05;;;;;;;18.17;12.90;;;;;;;;;;5021858;28;20617;-85
2021/09/15 08:12:09;;;;;;;15.83;12.33;;;;;;;;;;5021597;28;20219;-84
2021/09/15 08:15:14;;;;;;;16.77;12.07;;;;;;;;;;5021989;28;20184;-85
2021/09/15 08:18:18;;;;;;;17.37;13.07;;;;;;;;;;5021971;28;20528;-85
2021/09/15 08:21:22;;;;;;;13.40;11.80;;;;;;;;;;5021961;28;20285;-85
2021/09/15 08:24:27;;;;;;;16.17;12.97;;;;;;;;;;4999349;28;20192;-85
2021/09/15 08:27:31;;;;;;;20.97;13.73;;;;;;;;;;5010402;28;20579;-84
2021/09/15 08:30:35;;;;;;;14.13;12.47;;;;;;;;;;5010901;28;20180;-85
2021/09/15 08:33:39;;;;;;;15.83;13.73;;;;;;;;;;5022537;28;20251;-85
2021/09/15 08:36:43;;;;;;;16.17;13.30;;;;;;;;;;5009678;28;20191;-84
2021/09/15 08:39:48;;;;;;;14.10;12.53;;;;;;;;;;5010247;28;20543;-84
2021/09/15 08:42:52;;;;;;;14.13;11.73;;;;;;;;;;5010559;28;20219;-85
2021/09/15 08:46:01;;;;;;;16.57;12.73;;;;;;;;;;4999977;28;20192;-85
2021/09/15 08:49:06;;;;;;;14.70;13.10;;;;;;;;;;4999786;28;20216;-85
2021/09/15 08:52:10;;;;;;;13.27;11.77;;;;;;;;;;5010580;28;20239;-85
2021/09/15 08:55:14;;;;;;;15.43;12.17;;;;;;;;;;5010878;28;20184;-85
2021/09/15 08:58:19;;;;;;;14.70;12.53;;;;;;;;;;4999750;28;20184;-85
2021/09/15 09:01:24;;;;;;;19.77;14.00;;;;;;;;;;5009686;28;20223;-84
2021/09/15 09:04:29;;;;;;;19.70;14.27;;;;;;;;;;4999011;28;20187;-85
2021/09/15 09:07:33;;;;;;;16.60;12.70;;;;;;;;;;5010113;28;20219;-85
2021/09/15 09:10:37;;;;;;;16.07;12.93;;;;;;;;;;5010151;28;20192;-84
2021/09/15 09:13:50;;;;;;;14.67;12.27;;;;;;;;;;5010128;28;20192;-84
2021/09/15 09:16:54;;;;;;;14.63;13.13;;;;;;;;;;4999115;28;20192;-84
2021/09/15 09:20:31;;;;;;;17.77;11.17;;;;;;;;;;5009883;28;20184;-85
2021/09/15 09:23:39;;;;;;;13.37;10.90;;;;;;;;;;4999260;28;20639;-85
2021/09/15 09:26:44;;;;;;;14.83;11.40;;;;;;;;;;5008247;28;20176;-85
2021/09/15 09:29:48;;;;;;;12.60;11.23;;;;;;;;;;5013891;28;20180;-85
2021/09/15 09:32:53;;;;;;;12.77;9.13;;;;;;;;;;5028777;28;20215;-84
2021/09/15 09:36:01;;;;;;;11.63;9.90;;;;;;;;;;5010107;28;20184;-84
2021/09/15 09:39:10;;;;;;;11.73;10.50;;;;;;;;;;4998432;28;20177;-84
2021/09/15 09:42:23;;;;;;;11.43;10.13;;;;;;;;;;5009662;28;20219;-85
2021/09/15 09:45:27;;;;;;;15.33;12.03;;;;;;;;;;4998374;28;20192;-85
2021/09/15 09:48:39;;;;;;;12.70;10.43;;;;;;;;;;5010574;28;20678;-85
2021/09/15 09:51:44;;;;;;;11.77;10.57;;;;;;;;;;5001893;28;20611;-85
2021/09/15 09:54:57;;;;;;;19.10;14.43;;;;;;;;;;5013046;28;20203;-83
2021/09/15 09:58:03;;;;;;;19.03;14.47;;;;;;;;;;5013249;28;20200;-85
2021/09/15 10:01:09;;;;;;;18.30;16.20;;;;;;;;;;5036770;28;20196;-84
2021/09/15 10:04:15;;;;;;;33.00;17.50;;;;;;;;;;5024470;28;20211;-85
2021/09/15 10:07:20;;;;;;;15.37;13.73;;;;;;;;;;5002229;28;20237;-85
2021/09/15 10:10:24;;;;;;;18.87;14.07;;;;;;;;;;5012892;28;20208;-84
2021/09/15 10:13:29;;;;;;;16.30;12.33;;;;;;;;;;5013137;28;20195;-85
2021/09/15 10:16:43;;;;;;;17.63;12.97;;;;;;;;;;5001643;28;20188;-85
2021/09/15 10:19:53;;;;;;;16.37;14.33;;;;;;;;;;5001118;28;20185;-85
2021/09/15 10:22:57;;;;;;;18.10;14.07;;;;;;;;;;5023774;28;20220;-85
2021/09/15 10:26:31;;;;;;;15.90;12.60;;;;;;;;;;5001634;28;20188;-84
2021/09/15 10:29:40;;;;;;;13.10;11.60;;;;;;;;;;5001599;28;20215;-84
2021/09/15 10:32:53;;;;;;;13.20;11.83;;;;;;;;;;5001232;28;20223;-85
2021/09/15 10:35:57;;;;;;;15.87;11.67;;;;;;;;;;5012572;28;20188;-85
2021/09/15 10:39:02;;;;;;;12.77;11.43;;;;;;;;;;5012803;28;20187;-85
2021/09/15 10:42:38;;;;;;;16.67;11.37;;;;;;;;;;5012077;28;20228;-85
2021/09/15 10:45:42;;;;;;;15.23;11.73;;;;;;;;;;5035962;28;20192;-85
2021/09/15 10:49:32;;;;;;;13.93;12.53;;;;;;;;;;5023297;28;20579;-85
2021/09/15 10:52:38;;;;;;;15.03;11.60;;;;;;;;;;5011831;28;20235;-85
2021/09/15 10:55:48;;;;;;;13.20;10.73;;;;;;;;;;5012033;28;20196;-85
2021/09/15 10:58:52;;;;;;;16.23;13.03;;;;;;;;;;5011778;28;20200;-85
2021/09/15 11:01:56;;;;;;;14.30;12.70;;;;;;;;;;5011919;28;20223;-85
2021/09/15 11:05:25;;;;;;;14.00;12.37;;;;;;;;;;5000763;28;20255;-84
2021/09/15 11:08:36;;;;;;;16.17;11.87;;;;;;;;;;5023685;28;20211;-85
2021/09/15 11:11:40;;;;;;;13.30;11.90;;;;;;;;;;5023045;28;20220;-84
2021/09/15 11:14:57;;;;;;;15.80;12.80;;;;;;;;;;5024794;28;20188;-84
2021/09/15 11:18:03;;;;;;;16.03;12.17;;;;;;;;;;5014666;28;20184;-84
2021/09/15 11:21:11;;;;;;;20.43;13.63;;;;;;;;;;5018527;28;20211;-84
2021/09/15 11:24:21;;;;;;;15.93;13.00;;;;;;;;;;5016335;28;20682;-85
2021/09/15 11:27:25;;;;;;;12.67;11.40;;;;;;;;;;5024603;28;20203;-84
2021/09/15 11:30:30;;;;;;;15.07;13.13;;;;;;;;;;5000872;28;20188;-84
2021/09/15 11:33:38;;;;;;;14.07;10.73;;;;;;;;;;5000670;28;20204;-84
2021/09/15 11:36:49;;;;;;;20.03;12.77;;;;;;;;;;5011234;28;20275;-84
2021/09/15 11:40:03;;;;;;;17.83;13.23;;;;;;;;;;5022942;28;20189;-84
2021/09/15 11:43:08;;;;;;;18.33;13.77;;;;;;;;;;5010965;28;20345;-85
2021/09/15 11:46:14;;;;;;;17.23;12.93;;;;;;;;;;5000078;28;20191;-85
2021/09/15 11:49:29;;;;;;;14.33;12.47;;;;;;;;;;5022465;28;20212;-84
2021/09/15 11:52:43;;;;;;;13.67;12.23;;;;;;;;;;4999677;28;20237;-84
2021/09/15 11:55:59;;;;;;;15.43;12.87;;;;;;;;;;5000121;28;20659;-84
2021/09/15 11:59:04;;;;;;;15.53;12.87;;;;;;;;;;5000334;28;20551;-85
2021/09/15 12:02:11;;;;;;;16.00;12.20;;;;;;;;;;5000083;28;20739;-84
2021/09/15 12:05:15;;;;;;;13.40;10.53;;;;;;;;;;5011220;28;20207;-85
2021/09/15 12:08:20;;;;;;;16.80;11.07;;;;;;;;;;5011934;28;20678;-85
2021/09/15 12:11:36;;;;;;;12.40;10.57;;;;;;;;;;5010576;28;20219;-84
2021/09/15 12:14:45;;;;;;;12.82;10.75;;;;;;;;;;5022081;28;20187;-85
2021/09/15 12:17:54;;;;;;;11.43;10.23;;;;;;;;;;5011070;28;20530;-85
2021/09/15 12:20:58;;;;;;;14.30;11.70;;;;;;;;;;5022917;28;20192;-84
2021/09/15 12:24:05;;;;;;;14.00;10.87;;;;;;;;;;4999900;28;20187;-85
2021/09/15 12:27:14;;;;;;;10.77;8.17;;;;;;;;;;4999741;28;20190;-85
2021/09/15 12:30:21;;;;;;;11.60;9.27;;;;;;;;;;5000497;28;20177;-85
2021/09/15 12:33:36;;;;;;;11.43;8.67;;;;;;;;;;5000469;28;20177;-85
2021/09/15 12:36:41;;;;;;;11.27;8.37;;;;;;;;;;4999743;28;20187;-84
2021/09/15 12:40:01;;;;;;;9.93;8.67;;;;;;;;;;4999915;28;20197;-85
2021/09/15 12:43:08;;;;;;;10.57;8.97;;;;;;;;;;5009973;28;20219;-84
2021/09/15 12:46:23;;;;;;;11.57;8.70;;;;;;;;;;5010318;28;20624;-84
2021/09/15 12:49:36;;;;;;;12.37;7.90;;;;;;;;;;5011557;28;20213;-84
2021/09/15 12:52:41;;;;;;;9.80;7.17;;;;;;;;;;5041032;22;20231;-85
2021/09/15 12:55:50;;;;;;;11.90;7.30;;;;;;;;;;5019023;28;20178;-85
2021/09/15 12:58:54;;;;;;;10.07;7.40;;;;;;;;;;5019320;28;20652;-85
2021/09/15 13:02:17;;;;;;;13.77;7.50;;;;;;;;;;5019036;28;20199;-84
2021/09/15 13:05:22;;;;;;;8.40;6.67;;;;;;;;;;5030167;28;20183;-85
2021/09/15 13:08:26;;;;;;;9.20;6.53;;;;;;;;;;5018645;28;20214;-85
2021/09/15 13:11:30;;;;;;;10.90;6.97;;;;;;;;;;5019887;28;20186;-85
2021/09/15 13:14:35;;;;;;;7.03;5.73;;;;;;;;;;5041465;28;20200;-85
2021/09/15 13:17:39;;;;;;;8.77;6.83;;;;;;;;;;5019364;28;20181;-85
2021/09/15 13:20:44;;;;;;;8.03;6.67;;;;;;;;;;5019142;28;20662;-85
2021/09/15 13:23:48;;;;;;;11.63;6.57;;;;;;;;;;5043185;28;20222;-85
2021/09/15 13:26:52;;;;;;;9.77;6.60;;;;;;;;;;5023221;28;20184;-85
2021/09/15 13:29:56;;;;;;;9.67;6.73;;;;;;;;;;5023193;28;20215;-85
2021/09/15 13:33:01;;;;;;;23.10;6.97;;;;;;;;;;5036145;28;20217;-85
2021/09/15 13:36:05;;;;;;;12.07;6.93;;;;;;;;;;5024203;28;20545;-85
2021/09/15 13:39:09;;;;;;;9.87;7.17;;;;;;;;;;5024313;28;20537;-85
2021/09/15 13:42:13;;;;;;;14.57;6.60;;;;;;;;;;5035706;28;20221;-85
2021/09/15 13:45:18;;;;;;;10.73;6.20;;;;;;;;;;5035590;28;20180;-85
2021/09/15 13:48:22;;;;;;;9.70;6.13;;;;;;;;;;5035505;28;20178;-85
2021/09/15 13:51:26;;;;;;;15.50;7.10;;;;;;;;;;5046474;28;20184;-85
2021/09/15 13:54:30;;;;;;;11.70;6.57;;;;;;;;;;5023844;28;20175;-85
2021/09/15 13:57:34;;;;;;;13.80;7.10;;;;;;;;;;5035147;28;20184;-85
2021/09/15 14:00:38;;;;;;;9.57;7.23;;;;;;;;;;5034741;28;20512;-85
2021/09/15 14:03:42;;;;;;;8.60;7.13;;;;;;;;;;5023578;28;20554;-85
2021/09/15 14:06:46;;;;;;;12.13;6.83;;;;;;;;;;5034449;28;20524;-85
2021/09/15 14:09:50;;;;;;;10.23;7.00;;;;;;;;;;5033487;28;20571;-85
2021/09/15 14:12:57;;;;;;;11.27;7.37;;;;;;;;;;5022945;28;20221;-85
2021/09/15 14:16:01;;;;;;;9.73;7.47;;;;;;;;;;5022922;28;20178;-85
2021/09/15 14:19:07;;;;;;;9.90;6.73;;;;;;;;;;5022637;28;20182;-85
2021/09/15 14:22:11;;;;;;;11.57;7.33;;;;;;;;;;5032986;28;20235;-85
2021/09/15 14:25:16;;;;;;;7.53;6.53;;;;;;;;;;5022236;28;20644;-85
2021/09/15 14:28:20;;;;;;;10.17;6.63;;;;;;;;;;5044562;28;20178;-85
2021/09/15 14:31:24;;;;;;;8.90;6.93;;;;;;;;;;5021743;28;20185;-87
2021/09/15 14:34:28;;;;;;;8.63;6.57;;;;;;;;;;5043124;28;20532;-86
2021/09/15 14:37:32;;;;;;;12.23;7.30;;;;;;;;;;5032936;28;20519;-86
2021/09/15 14:40:36;;;;;;;10.73;6.67;;;;;;;;;;5032616;28;20184;-85
2021/09/15 14:43:41;;;;;;;9.23;6.53;;;;;;;;;;5032353;28;20558;-87
2021/09/15 14:46:45;;;;;;;9.03;6.83;;;;;;;;;;5021603;28;20633;-86
2021/09/15 14:49:49;;;;;;;8.33;6.20;;;;;;;;;;5032740;28;20652;-86
2021/09/15 14:52:53;;;;;;;7.30;5.77;;;;;;;;;;5032099;28;20238;-86
2021/09/15 14:55:58;;;;;;;13.47;6.30;;;;;;;;;;5021316;28;20199;-86
2021/09/15 14:59:02;;;;;;;8.00;6.37;;;;;;;;;;5032060;28;20199;-86
2021/09/15 15:02:07;;;;;;;8.33;6.10;;;;;;;;;;5031980;28;20664;-86
2021/09/15 15:05:11;;;;;;;12.77;7.90;;;;;;;;;;5032034;28;20176;-86
2021/09/15 15:08:15;;;;;;;13.27;6.73;;;;;;;;;;5043663;28;20506;-85
2021/09/15 15:11:19;;;;;;;10.07;7.33;;;;;;;;;;5043392;28;20174;-86
2021/09/15 15:14:23;;;;;;;9.27;7.43;;;;;;;;;;5020709;28;20176;-86
2021/09/15 15:17:27;;;;;;;15.03;8.47;;;;;;;;;;5043235;28;20186;-86
2021/09/15 15:20:32;;;;;;;13.67;8.03;;;;;;;;;;5031857;28;20529;-85
2021/09/15 15:23:39;;;;;;;11.07;7.20;;;;;;;;;;5020461;28;20573;-86
2021/09/15 15:26:45;;;;;;;18.10;7.13;;;;;;;;;;5031740;28;20177;-86
2021/09/15 15:29:49;;;;;;;15.27;7.63;;;;;;;;;;5043623;28;20210;-86
2021/09/15 15:32:53;;;;;;;8.73;7.80;;;;;;;;;;5032131;28;20223;-86
2021/09/15 15:35:58;;;;;;;8.37;6.97;;;;;;;;;;5032244;28;20537;-86
2021/09/15 15:39:03;;;;;;;11.70;7.60;;;;;;;;;;5032194;28;20205;-86
2021/09/15 15:42:07;;;;;;;12.30;7.27;;;;;;;;;;5043353;28;20206;-86
2021/09/15 15:45:14;;;;;;;11.07;6.80;;;;;;;;;;5020723;28;20190;-86
2021/09/15 15:48:17;;;;;;;11.07;6.47;;;;;;;;;;5031877;28;20188;-86
2021/09/15 15:51:21;;;;;;;11.33;6.83;;;;;;;;;;5032246;28;20192;-86
2021/09/15 15:54:26;;;;;;;13.10;7.03;;;;;;;;;;5031676;28;20201;-86
2021/09/15 15:57:30;;;;;;;10.47;6.83;;;;;;;;;;5031688;28;20541;-86
2021/09/15 16:00:34;;;;;;;8.13;7.13;;;;;;;;;;5031982;28;20193;-86
2021/09/15 16:03:38;;;;;;;18.10;7.60;;;;;;;;;;5042955;28;20220;-86
2021/09/15 16:06:42;;;;;;;9.63;6.87;;;;;;;;;;5055305;28;20184;-86
2021/09/15 16:09:46;;;;;;;11.53;7.70;;;;;;;;;;5031546;28;20206;-86
2021/09/15 16:12:50;;;;;;;12.53;7.87;;;;;;;;;;5020400;28;20225;-86
2021/09/15 16:15:56;;;;;;;11.13;7.73;;;;;;;;;;5021168;28;20183;-86
2021/09/15 16:19:00;;;;;;;10.50;8.17;;;;;;;;;;5031649;28;20187;-85
2021/09/15 16:22:04;;;;;;;9.67;7.73;;;;;;;;;;5020252;28;20184;-85
2021/09/15 16:25:09;;;;;;;8.73;7.77;;;;;;;;;;5031851;28;20516;-85
2021/09/15 16:28:13;;;;;;;9.33;7.00;;;;;;;;;;5031363;28;20176;-85
2021/09/15 16:31:18;;;;;;;8.87;7.23;;;;;;;;;;5019950;28;20217;-85
2021/09/15 16:34:22;;;;;;;9.77;6.50;;;;;;;;;;5031638;28;20638;-85
2021/09/15 16:37:26;;;;;;;11.27;7.13;;;;;;;;;;5043205;28;20192;-86
2021/09/15 16:40:30;;;;;;;10.07;7.17;;;;;;;;;;5020388;28;20196;-86
2021/09/15 16:43:34;;;;;;;8.87;7.40;;;;;;;;;;5020415;28;20216;-86
2021/09/15 16:46:39;;;;;;;7.90;7.10;;;;;;;;;;5043654;28;20172;-86
2021/09/15 16:49:43;;;;;;;8.33;7.00;;;;;;;;;;5031910;28;20539;-85
2021/09/15 16:52:47;;;;;;;7.83;7.00;;;;;;;;;;5055077;28;20219;-86
2021/09/15 16:55:51;;;;;;;9.93;7.10;;;;;;;;;;5020228;28;20180;-85
2021/09/15 16:58:56;;;;;;;11.23;7.70;;;;;;;;;;5033666;28;20650;-85
2021/09/15 17:02:00;;;;;;;10.43;6.77;;;;;;;;;;5035718;28;20622;-85
2021/09/15 17:05:05;;;;;;;15.27;7.03;;;;;;;;;;5024394;28;20512;-85
2021/09/15 17:08:09;;;;;;;10.33;7.13;;;;;;;;;;5034944;28;20180;-85
2021/09/15 17:11:13;;;;;;;10.27;7.33;;;;;;;;;;5045662;28;20693;-85
2021/09/15 17:14:17;;;;;;;9.37;7.90;;;;;;;;;;5034510;28;20183;-85
2021/09/15 17:17:22;;;;;;;9.43;7.47;;;;;;;;;;5023505;28;20184;-85
2021/09/15 17:20:26;;;;;;;8.67;7.47;;;;;;;;;;5045158;28;20543;-85
2021/09/15 17:23:30;;;;;;;13.57;8.60;;;;;;;;;;5022890;28;20678;-85
2021/09/15 17:26:34;;;;;;;12.47;9.10;;;;;;;;;;5033897;28;20195;-85
2021/09/15 17:29:38;;;;;;;12.17;8.93;;;;;;;;;;5022871;28;20184;-85
2021/09/15 17:32:43;;;;;;;12.33;9.10;;;;;;;;;;5045651;28;20216;-85
2021/09/15 17:35:47;;;;;;;10.00;9.00;;;;;;;;;;5035080;28;20555;-85
2021/09/15 17:38:52;;;;;;;13.03;9.13;;;;;;;;;;5035962;28;20497;-85
2021/09/15 17:41:59;;;;;;;12.87;9.97;;;;;;;;;;5034927;28;20184;-85
2021/09/15 17:45:03;;;;;;;14.20;10.63;;;;;;;;;;5035293;28;20184;-86
2021/09/15 17:48:09;;;;;;;15.60;11.53;;;;;;;;;;5034062;28;20251;-85
2021/09/15 17:51:14;;;;;;;18.50;12.43;;;;;;;;;;5023270;28;20215;-85
2021/09/15 17:54:18;;;;;;;18.43;12.70;;;;;;;;;;5035007;28;20207;-84
2021/09/15 17:57:22;;;;;;;16.50;12.97;;;;;;;;;;5035141;28;20675;-84
2021/09/15 18:00:27;;;;;;;20.67;14.17;;;;;;;;;;5023634;28;20539;-84
2021/09/15 18:03:31;;;;;;;18.30;14.47;;;;;;;;;;5045353;28;20745;-84
2021/09/15 18:06:36;;;;;;;20.63;14.30;;;;;;;;;;5045206;28;20186;-84
2021/09/15 18:09:40;;;;;;;18.33;14.13;;;;;;;;;;5034353;28;20207;-84
2021/09/15 18:12:44;;;;;;;20.90;16.17;;;;;;;;;;5033784;28;20579;-84
2021/09/15 18:15:50;;;;;;;20.13;15.17;;;;;;;;;;5023846;28;20184;-84
2021/09/15 18:18:54;;;;;;;20.57;15.07;;;;;;;;;;5046582;28;20191;-84
2021/09/15 18:21:58;;;;;;;20.03;16.07;;;;;;;;;;5034519;28;20179;-84
2021/09/15 18:25:03;;;;;;;17.33;13.93;;;;;;;;;;5035004;28;20187;-83
2021/09/15 18:28:08;;;;;;;17.10;13.67;;;;;;;;;;5034801;28;20191;-84